createdAt,value
2023-01-19T00:04:57.276Z,11.05
2023-01-19T00:10:00.202Z,13.82
2023-01-19T00:15:02.929Z,17.25
2023-01-19T00:20:06.298Z,17.90
2023-01-19T00:25:09.494Z,15.10
2023-01-19T00:30:13.764Z,18.98
2023-01-19T00:35:16.738Z,22.25
2023-01-19T00:40:19.697Z,20.90
2023-01-19T00:45:24.918Z,16.67
2023-01-19T00:50:30.421Z,18.77
2023-01-19T00:55:36.263Z,26.33
2023-01-19T01:00:39.121Z,24.58
2023-01-19T01:05:42.799Z,17.95
2023-01-19T01:10:45.493Z,21.60
2023-01-19T01:15:51.426Z,22.13
2023-01-19T01:21:00.779Z,25.38
2023-01-19T01:26:03.760Z,23.92
2023-01-19T01:31:06.460Z,27.38
2023-01-19T01:36:11.968Z,37.07
2023-01-19T01:41:14.878Z,26.73
2023-01-19T01:46:18.460Z,23.00
2023-01-19T01:51:58.374Z,25.02
2023-01-19T01:57:06.546Z,24.98
2023-01-19T02:02:38.457Z,25.80
2023-01-19T02:08:22.072Z,30.77
2023-01-19T02:13:25.847Z,28.40
2023-01-19T02:18:30.999Z,26.67
2023-01-19T02:23:50.363Z,26.25
2023-01-19T02:29:08.911Z,22.87
2023-01-19T02:34:15.672Z,27.42
2023-01-19T02:39:22.765Z,25.35
2023-01-19T02:44:26.927Z,26.80
2023-01-19T02:49:30.481Z,27.92
2023-01-19T02:54:52.703Z,31.00
2023-01-19T03:00:34.168Z,27.92
2023-01-19T03:05:58.568Z,25.92
2023-01-19T03:11:05.452Z,29.83
2023-01-19T03:16:14.115Z,29.02
2023-01-19T03:21:19.888Z,22.40
2023-01-19T03:26:29.384Z,31.15
2023-01-19T03:31:33.680Z,32.67
2023-01-19T03:36:44.394Z,28.90
2023-01-19T03:41:50.262Z,25.80
2023-01-19T03:46:53.292Z,29.40
2023-01-19T03:51:57.377Z,21.73
2023-01-19T03:57:00.310Z,23.98
2023-01-19T04:02:03.170Z,23.88
2023-01-19T04:07:06.121Z,25.10
2023-01-19T04:12:09.211Z,20.60
2023-01-19T04:17:12.331Z,33.45
2023-01-19T04:22:15.105Z,19.52
2023-01-19T04:27:18.463Z,30.17
2023-01-19T04:32:21.194Z,31.98
2023-01-19T04:37:24.124Z,21.97
2023-01-19T04:42:27.886Z,21.33
2023-01-19T04:47:30.596Z,22.70
2023-01-19T04:52:37.175Z,20.60
2023-01-19T04:57:39.991Z,17.83
2023-01-19T05:02:45.751Z,24.60
2023-01-19T05:07:48.939Z,26.73
2023-01-19T05:12:51.749Z,15.70
2023-01-19T05:17:54.561Z,11.55
2023-01-19T05:22:57.345Z,12.60
2023-01-19T05:28:00.208Z,22.37
2023-01-19T05:33:03.316Z,25.90
2023-01-19T05:38:06.270Z,21.50
2023-01-19T05:43:09.088Z,16.90
2023-01-19T05:48:11.953Z,24.55
2023-01-19T05:53:14.807Z,23.93
2023-01-19T05:58:17.717Z,27.35
2023-01-19T06:03:20.569Z,20.08
2023-01-19T06:08:23.619Z,22.58
2023-01-19T06:13:26.340Z,27.70
2023-01-19T06:18:29.923Z,13.03
2023-01-19T06:23:34.422Z,22.48
2023-01-19T06:28:37.326Z,24.80
2023-01-19T06:33:40.190Z,23.85
2023-01-19T06:38:42.897Z,20.77
2023-01-19T06:43:45.723Z,22.53
2023-01-19T06:48:48.589Z,24.70
2023-01-19T06:53:51.319Z,22.13
2023-01-19T06:58:55.513Z,24.27
2023-01-19T07:03:58.509Z,24.10
2023-01-19T07:09:04.967Z,14.50
2023-01-19T07:14:07.736Z,11.77
2023-01-19T07:19:11.232Z,18.85
2023-01-19T07:24:14.222Z,21.52
2023-01-19T07:29:17.049Z,37.75
2023-01-19T07:34:20.166Z,34.60
2023-01-19T07:39:22.887Z,36.05
2023-01-19T07:44:25.677Z,33.92
2023-01-19T07:49:28.447Z,27.17
2023-01-19T07:54:31.195Z,26.63
2023-01-19T07:59:34.042Z,21.20
2023-01-19T08:04:36.818Z,19.48
2023-01-19T08:09:39.857Z,27.40
2023-01-19T08:14:42.556Z,30.88
2023-01-19T08:19:45.405Z,32.97
2023-01-19T08:24:50.305Z,28.47
2023-01-19T08:29:54.653Z,27.27
2023-01-19T08:34:57.550Z,39.20
2023-01-19T08:40:00.256Z,25.55
2023-01-19T08:45:03.007Z,29.38
2023-01-19T08:50:06.261Z,33.37
2023-01-19T08:55:11.470Z,34.83
2023-01-19T09:00:14.975Z,45.83
2023-01-19T09:05:18.383Z,34.05
2023-01-19T09:10:21.303Z,44.10
2023-01-19T09:15:24.184Z,45.87
2023-01-19T09:20:27.081Z,43.88
2023-01-19T09:25:30.366Z,34.13
2023-01-19T09:30:33.539Z,32.72
2023-01-19T09:35:36.602Z,46.65
2023-01-19T09:40:44.911Z,44.13
2023-01-19T09:46:15.622Z,40.88
2023-01-19T09:51:26.664Z,42.67
2023-01-19T09:56:31.392Z,37.72
2023-01-19T10:01:41.056Z,42.80
2023-01-19T10:06:46.370Z,38.80
2023-01-19T10:11:59.791Z,33.22
2023-01-19T10:17:34.625Z,34.03
2023-01-19T10:22:37.944Z,32.20
2023-01-19T10:27:41.857Z,36.40
2023-01-19T10:32:45.925Z,35.47
2023-01-19T10:37:49.700Z,36.13
2023-01-19T10:42:52.559Z,33.83
2023-01-19T10:47:58.990Z,39.47
2023-01-19T10:53:04.871Z,33.38
2023-01-19T10:58:29.289Z,37.83
2023-01-19T11:03:32.826Z,42.22
2023-01-19T11:08:35.521Z,43.22
2023-01-19T11:13:41.580Z,41.25
2023-01-19T11:18:46.012Z,35.55
2023-01-19T11:23:55.031Z,37.70
2023-01-19T11:29:00.294Z,39.10
2023-01-19T11:34:05.968Z,57.05
2023-01-19T11:39:20.949Z,43.55
2023-01-19T11:44:47.265Z,44.38
2023-01-19T11:50:01.687Z,40.97
2023-01-19T11:55:23.034Z,34.78
2023-01-19T12:00:34.456Z,37.75
2023-01-19T12:05:41.601Z,51.30
2023-01-19T12:10:47.617Z,55.00
2023-01-19T12:15:59.624Z,41.47
2023-01-19T12:21:04.224Z,37.85
2023-01-19T12:26:16.529Z,35.25
2023-01-19T12:31:23.826Z,40.45
2023-01-19T12:36:33.431Z,38.00
2023-01-19T12:41:38.441Z,37.03
2023-01-19T12:46:49.518Z,48.13
2023-01-19T12:51:55.433Z,44.92
2023-01-19T12:57:05.367Z,50.75
2023-01-19T13:02:27.461Z,47.22
2023-01-19T13:07:30.303Z,56.83
2023-01-19T13:12:33.197Z,66.75
2023-01-19T13:17:53.140Z,76.45
2023-01-19T13:23:23.135Z,92.32
2023-01-19T13:29:03.093Z,73.35
2023-01-19T13:34:13.462Z,79.80
2023-01-19T13:39:34.738Z,82.18
2023-01-19T13:45:02.516Z,81.30
2023-01-19T13:50:06.037Z,65.93
2023-01-19T13:55:14.749Z,64.35
2023-01-19T14:00:25.086Z,69.47
2023-01-19T14:05:30.936Z,57.95
2023-01-19T14:10:39.241Z,62.00
2023-01-19T14:15:42.471Z,69.57
2023-01-19T14:21:09.382Z,67.40
2023-01-19T14:26:40.347Z,69.27
2023-01-19T14:31:49.834Z,58.80
2023-01-19T14:36:52.829Z,66.88
2023-01-19T14:41:58.918Z,66.65
2023-01-19T14:47:02.405Z,83.00
2023-01-19T14:52:22.547Z,86.60
2023-01-19T14:57:25.672Z,77.72
2023-01-19T15:02:28.687Z,74.88
2023-01-19T15:07:31.799Z,88.20
2023-01-19T15:12:34.698Z,74.82
2023-01-19T15:17:37.611Z,72.67
2023-01-19T15:22:40.561Z,70.03
2023-01-19T15:27:44.607Z,64.93
2023-01-19T15:32:47.948Z,64.80
2023-01-19T15:37:51.405Z,65.32
2023-01-19T15:42:54.177Z,70.57
2023-01-19T15:47:56.871Z,64.30
2023-01-19T15:52:59.959Z,64.25
2023-01-19T15:58:03.013Z,60.55
2023-01-19T16:03:06.245Z,65.43
2023-01-19T16:08:09.477Z,56.93
2023-01-19T16:13:14.708Z,60.70
2023-01-19T16:18:17.417Z,53.33
2023-01-19T16:23:20.383Z,59.22
2023-01-19T16:28:23.823Z,69.22
2023-01-19T16:33:26.792Z,77.10
2023-01-19T16:38:29.711Z,62.35
2023-01-19T16:43:32.444Z,61.00
2023-01-19T16:48:35.197Z,53.67
2023-01-19T16:53:37.996Z,48.63
2023-01-19T16:58:41.886Z,43.53
2023-01-19T17:03:44.770Z,59.00
2023-01-19T17:08:48.082Z,54.60
2023-01-19T17:13:54.848Z,50.53
2023-01-19T17:18:58.849Z,44.13
2023-01-19T17:24:01.664Z,45.90
2023-01-19T17:29:06.737Z,43.13
2023-01-19T17:34:10.187Z,42.22
2023-01-19T17:39:15.155Z,43.38
2023-01-19T17:44:18.612Z,44.47
2023-01-19T17:49:22.048Z,35.50
2023-01-19T17:54:24.957Z,44.22
2023-01-19T17:59:27.897Z,34.88
2023-01-19T18:04:32.204Z,40.45
2023-01-19T18:09:35.092Z,34.92
2023-01-19T18:14:38.567Z,41.53
2023-01-19T18:19:41.484Z,37.88
2023-01-19T18:24:45.903Z,42.17
2023-01-19T18:29:49.066Z,33.30
2023-01-19T18:34:54.250Z,44.72
2023-01-19T18:39:59.941Z,28.60
2023-01-19T18:45:02.759Z,45.33
2023-01-19T18:50:05.744Z,35.25
2023-01-19T18:55:08.775Z,34.03
2023-01-19T19:00:12.558Z,33.03
2023-01-19T19:05:15.701Z,34.50
2023-01-19T19:10:18.530Z,35.88
2023-01-19T19:15:21.884Z,27.90
2023-01-19T19:20:24.632Z,39.65
2023-01-19T19:25:27.338Z,25.55
2023-01-19T19:30:30.181Z,28.13
2023-01-19T19:35:33.022Z,32.25
2023-01-19T19:40:35.833Z,37.22
2023-01-19T19:45:38.935Z,33.53
2023-01-19T19:50:41.688Z,25.45
2023-01-19T19:55:44.527Z,32.87
2023-01-19T20:00:47.284Z,22.35
2023-01-19T20:05:50.222Z,29.20
2023-01-19T20:10:52.924Z,24.00
2023-01-19T20:15:56.166Z,22.05
2023-01-19T20:21:10.293Z,25.20
2023-01-19T20:26:15.041Z,13.68
2023-01-19T20:31:24.085Z,27.17
2023-01-19T20:36:27.083Z,20.23
2023-01-19T20:41:29.887Z,30.27
2023-01-19T20:46:32.794Z,26.13
2023-01-19T20:51:37.608Z,13.98
2023-01-19T20:56:41.642Z,26.63
2023-01-19T21:01:48.845Z,21.13
2023-01-19T21:06:52.414Z,22.67
2023-01-19T21:11:57.302Z,28.07
2023-01-19T21:17:00.404Z,26.95
2023-01-19T21:22:03.336Z,27.13
2023-01-19T21:27:06.286Z,36.80
2023-01-19T21:32:09.224Z,32.47
2023-01-19T21:37:12.026Z,33.70
2023-01-19T21:42:14.841Z,36.33
2023-01-19T21:47:18.011Z,25.65
2023-01-19T21:52:21.164Z,22.67
2023-01-19T21:57:23.989Z,15.05
2023-01-19T22:02:38.333Z,28.37
2023-01-19T22:07:41.895Z,37.13
2023-01-19T22:12:44.802Z,34.78
2023-01-19T22:17:47.716Z,29.10
2023-01-19T22:22:50.895Z,28.35
2023-01-19T22:27:56.768Z,29.77
2023-01-19T22:32:59.628Z,27.13
2023-01-19T22:38:02.538Z,26.48
2023-01-19T22:43:05.310Z,28.10
2023-01-19T22:48:08.006Z,24.52
